createdAt,value
2023-11-12T00:01:59.156Z,19.42
2023-11-12T00:04:25.954Z,19.41
2023-11-12T00:06:52.621Z,19.40
2023-11-12T00:09:19.645Z,19.39
2023-11-12T00:11:46.151Z,19.38
2023-11-12T00:14:12.626Z,19.37
2023-11-12T00:16:39.030Z,19.36
2023-11-12T00:19:06.066Z,19.35
2023-11-12T00:21:32.446Z,19.35
2023-11-12T00:23:59.146Z,19.33
2023-11-12T00:26:25.560Z,19.32
2023-11-12T00:28:52.101Z,19.32
2023-11-12T00:31:18.754Z,19.31
2023-11-12T00:33:45.946Z,19.30
2023-11-12T00:36:13.498Z,19.28
2023-11-12T00:38:39.958Z,19.28
2023-11-12T00:41:09.553Z,19.27
2023-11-12T00:43:35.985Z,19.26
2023-11-12T00:46:03.063Z,19.25
2023-11-12T00:48:29.852Z,19.23
2023-11-12T00:50:56.380Z,19.24
2023-11-12T00:53:23.891Z,19.22
2023-11-12T00:55:50.409Z,19.22
2023-11-12T00:58:16.851Z,19.20
2023-11-12T01:00:43.308Z,19.20
2023-11-12T01:03:13.518Z,19.18
2023-11-12T01:05:40.036Z,19.18
2023-11-12T01:08:08.105Z,19.17
2023-11-12T01:10:34.791Z,19.16
2023-11-12T01:13:01.531Z,19.15
2023-11-12T01:15:28.619Z,19.14
2023-11-12T01:17:55.224Z,19.13
2023-11-12T01:20:22.446Z,19.12
2023-11-12T01:22:48.970Z,19.13
2023-11-12T01:25:16.017Z,19.12
2023-11-12T01:27:42.595Z,19.12
2023-11-12T01:30:09.283Z,19.10
2023-11-12T01:32:35.766Z,19.09
2023-11-12T01:35:02.548Z,19.09
2023-11-12T01:37:28.932Z,19.08
2023-11-12T01:39:55.520Z,19.07
2023-11-12T01:42:21.974Z,19.07
2023-11-12T01:44:48.545Z,19.06
2023-11-12T01:47:15.723Z,19.04
2023-11-12T01:49:42.309Z,19.04
2023-11-12T01:52:10.264Z,19.03
2023-11-12T01:54:38.836Z,19.02
2023-11-12T01:57:07.910Z,19.01
2023-11-12T01:59:36.952Z,19.00
2023-11-12T02:02:04.390Z,19.00
2023-11-12T02:04:30.913Z,19.00
2023-11-12T02:07:00.118Z,18.99
2023-11-12T02:09:27.277Z,18.98
2023-11-12T02:11:55.875Z,18.96
2023-11-12T02:14:24.788Z,18.95
2023-11-12T02:16:52.269Z,18.95
2023-11-12T02:19:29.734Z,18.92
2023-11-12T02:21:57.363Z,18.93
2023-11-12T02:24:27.163Z,18.91
2023-11-12T02:26:53.769Z,18.91
2023-11-12T02:29:20.454Z,18.88
2023-11-12T02:31:47.017Z,18.88
2023-11-12T02:34:13.410Z,18.88
2023-11-12T02:36:42.103Z,18.87
2023-11-12T02:39:09.454Z,18.87
2023-11-12T02:41:39.486Z,18.85
2023-11-12T02:44:09.618Z,18.84
2023-11-12T02:46:36.706Z,18.83
2023-11-12T02:49:09.056Z,18.82
2023-11-12T02:51:36.132Z,18.81
2023-11-12T02:54:04.350Z,18.80
2023-11-12T02:56:32.121Z,18.80
2023-11-12T02:58:58.577Z,18.79
2023-11-12T03:01:25.898Z,18.78
2023-11-12T03:03:53.232Z,18.77
2023-11-12T03:06:19.756Z,18.77
2023-11-12T03:08:46.284Z,18.75
2023-11-12T03:11:13.346Z,18.75
2023-11-12T03:13:39.771Z,18.74
2023-11-12T03:16:06.437Z,18.72
2023-11-12T03:18:32.991Z,18.71
2023-11-12T03:20:59.398Z,18.71
2023-11-12T03:23:25.794Z,18.69
2023-11-12T03:25:53.978Z,18.68
2023-11-12T03:28:20.403Z,18.67
2023-11-12T03:30:46.895Z,18.67
2023-11-12T03:33:13.511Z,18.65
2023-11-12T03:35:39.983Z,18.65
2023-11-12T03:38:06.503Z,18.64
2023-11-12T03:40:32.876Z,18.63
2023-11-12T03:43:00.214Z,18.61
2023-11-12T03:45:26.717Z,18.60
2023-11-12T03:47:53.233Z,18.60
2023-11-12T03:50:19.741Z,18.60
2023-11-12T03:52:47.035Z,18.59
2023-11-12T03:55:13.946Z,18.57
2023-11-12T03:57:40.452Z,18.55
2023-11-12T04:00:08.352Z,18.55
2023-11-12T04:02:34.948Z,18.54
2023-11-12T04:05:01.690Z,18.53
2023-11-12T04:07:28.253Z,18.53
2023-11-12T04:09:54.692Z,18.52
2023-11-12T04:12:21.209Z,18.50
2023-11-12T04:14:47.661Z,18.50
2023-11-12T04:17:14.109Z,18.48
2023-11-12T04:19:40.609Z,18.47
2023-11-12T04:22:07.052Z,18.46
2023-11-12T04:24:33.516Z,18.46
2023-11-12T04:27:00.024Z,18.45
2023-11-12T04:29:27.671Z,18.44
2023-11-12T04:31:54.098Z,18.44
2023-11-12T04:34:21.017Z,18.42
2023-11-12T04:36:48.156Z,18.41
2023-11-12T04:39:14.720Z,18.40
2023-11-12T04:41:41.147Z,18.39
2023-11-12T04:44:07.570Z,18.39
2023-11-12T04:46:34.837Z,18.38
2023-11-12T04:49:01.515Z,18.37
2023-11-12T04:51:28.026Z,18.36
2023-11-12T04:53:55.264Z,18.35
2023-11-12T04:56:21.696Z,18.35
2023-11-12T04:58:48.224Z,18.34
2023-11-12T05:01:14.781Z,18.34
2023-11-12T05:03:41.752Z,18.32
2023-11-12T05:06:09.243Z,18.31
2023-11-12T05:08:36.104Z,18.30
2023-11-12T05:11:02.620Z,18.28
2023-11-12T05:13:29.060Z,18.28
2023-11-12T05:15:55.732Z,18.28
2023-11-12T05:18:22.693Z,18.26
2023-11-12T05:20:49.231Z,18.26
2023-11-12T05:23:15.693Z,18.26
2023-11-12T05:25:42.267Z,18.23
2023-11-12T05:28:08.907Z,18.23
2023-11-12T05:30:35.615Z,18.22
2023-11-12T05:33:02.535Z,18.21
2023-11-12T05:35:29.102Z,18.20
2023-11-12T05:37:55.682Z,18.19
2023-11-12T05:40:22.139Z,18.18
2023-11-12T05:42:48.610Z,18.17
2023-11-12T05:45:15.170Z,18.16
2023-11-12T05:47:41.947Z,18.16
2023-11-12T05:50:09.119Z,18.15
2023-11-12T05:52:35.599Z,18.14
2023-11-12T05:55:02.049Z,18.14
2023-11-12T05:57:28.580Z,18.14
2023-11-12T05:59:54.973Z,18.13
2023-11-12T06:02:21.367Z,18.12
2023-11-12T06:04:47.820Z,18.11
2023-11-12T06:07:14.210Z,18.11
2023-11-12T06:09:40.716Z,18.11
2023-11-12T06:12:08.920Z,18.10
2023-11-12T06:14:37.510Z,18.09
2023-11-12T06:17:05.712Z,18.08
2023-11-12T06:19:32.394Z,18.08
2023-11-12T06:21:58.935Z,18.07
2023-11-12T06:24:25.424Z,18.05
2023-11-12T06:26:51.908Z,18.06
2023-11-12T06:29:18.466Z,18.05
2023-11-12T06:31:44.908Z,18.03
2023-11-12T06:34:11.483Z,18.04
2023-11-12T06:36:38.150Z,18.05
2023-11-12T06:39:04.840Z,18.05
2023-11-12T06:41:31.274Z,18.04
2023-11-12T06:43:57.640Z,18.02
2023-11-12T06:46:24.056Z,18.01
2023-11-12T06:48:50.795Z,17.99
2023-11-12T06:51:24.034Z,18.00
2023-11-12T06:53:50.993Z,18.02
2023-11-12T06:56:17.613Z,18.03
2023-11-12T06:58:44.630Z,18.05
2023-11-12T07:01:11.310Z,18.09
2023-11-12T07:03:39.348Z,18.14
2023-11-12T07:06:07.808Z,18.20
2023-11-12T07:08:34.791Z,18.25
2023-11-12T07:11:01.361Z,18.33
2023-11-12T07:13:28.149Z,18.38
2023-11-12T07:15:56.227Z,18.45
2023-11-12T07:18:23.031Z,18.50
2023-11-12T07:20:50.668Z,18.54
2023-11-12T07:23:17.130Z,18.59
2023-11-12T07:25:43.558Z,18.65
2023-11-12T07:28:10.041Z,18.69
2023-11-12T07:30:39.362Z,18.73
2023-11-12T07:33:09.403Z,18.75
2023-11-12T07:35:35.809Z,18.78
2023-11-12T07:38:02.224Z,18.83
2023-11-12T07:40:28.770Z,18.85
2023-11-12T07:42:56.461Z,18.88
2023-11-12T07:45:25.852Z,18.92
2023-11-12T07:47:58.262Z,18.96
2023-11-12T07:50:24.830Z,18.99
2023-11-12T07:52:51.553Z,19.03
2023-11-12T07:55:18.143Z,19.06
2023-11-12T07:57:44.768Z,19.09
2023-11-12T08:00:14.346Z,19.12
2023-11-12T08:02:41.125Z,19.13
2023-11-12T08:05:09.501Z,19.16
2023-11-12T08:07:36.632Z,19.19
2023-11-12T08:10:05.983Z,19.21
2023-11-12T08:12:33.150Z,19.24
2023-11-12T08:14:59.656Z,19.26
2023-11-12T08:17:26.132Z,19.28
2023-11-12T08:19:53.539Z,19.30
2023-11-12T08:22:20.490Z,19.31
2023-11-12T08:24:47.052Z,19.34
2023-11-12T08:27:14.278Z,19.38
2023-11-12T08:29:40.704Z,19.42
2023-11-12T08:32:07.543Z,19.48
2023-11-12T08:34:34.743Z,19.50
2023-11-12T08:37:01.286Z,19.55
2023-11-12T08:39:29.105Z,19.59
2023-11-12T08:41:55.622Z,19.62
2023-11-12T08:44:22.242Z,19.65
2023-11-12T08:46:52.391Z,19.69
2023-11-12T08:49:19.823Z,19.72
2023-11-12T08:51:46.345Z,19.76
2023-11-12T08:54:13.830Z,19.79
2023-11-12T08:56:40.610Z,19.82
2023-11-12T08:59:08.859Z,19.84
2023-11-12T09:01:39.172Z,19.87
2023-11-12T09:04:05.858Z,19.90
2023-11-12T09:06:32.480Z,19.78
2023-11-12T09:08:59.084Z,19.71
2023-11-12T09:11:25.571Z,19.68
2023-11-12T09:13:52.540Z,19.68
2023-11-12T09:16:19.116Z,19.66
2023-11-12T09:18:45.748Z,19.65
2023-11-12T09:21:12.327Z,19.63
2023-11-12T09:23:39.709Z,19.64
2023-11-12T09:26:06.245Z,19.59
2023-11-12T09:28:32.690Z,19.54
2023-11-12T09:31:00.628Z,19.51
2023-11-12T09:33:28.406Z,19.49
2023-11-12T09:35:55.233Z,19.46
2023-11-12T09:38:22.131Z,19.42
2023-11-12T09:40:48.806Z,19.41
2023-11-12T09:43:15.460Z,19.38
2023-11-12T09:45:44.944Z,19.37
2023-11-12T09:48:24.375Z,19.35
2023-11-12T09:50:51.206Z,19.34
2023-11-12T09:53:18.257Z,19.36
2023-11-12T09:55:46.172Z,19.36
2023-11-12T09:58:13.380Z,19.36
2023-11-12T10:00:39.857Z,19.36
2023-11-12T10:03:08.750Z,19.36
2023-11-12T10:05:36.340Z,19.35
2023-11-12T10:08:05.774Z,19.35
2023-11-12T10:10:32.801Z,19.33
2023-11-12T10:12:59.765Z,19.31
2023-11-12T10:15:31.859Z,19.29
2023-11-12T10:18:01.119Z,19.28
2023-11-12T10:20:30.586Z,19.28
2023-11-12T10:22:57.300Z,19.25
2023-11-12T10:25:36.981Z,19.22
2023-11-12T10:28:05.444Z,19.22
2023-11-12T10:30:32.389Z,19.20
2023-11-12T10:33:28.617Z,19.17
2023-11-12T10:35:58.553Z,19.14
2023-11-12T10:38:25.200Z,19.13
2023-11-12T10:41:03.336Z,19.11
2023-11-12T10:43:31.844Z,19.12
2023-11-12T10:46:04.766Z,19.11
2023-11-12T10:48:36.673Z,19.10
2023-11-12T10:51:06.687Z,19.10
2023-11-12T10:53:34.584Z,19.11
2023-11-12T10:56:02.630Z,19.13
2023-11-12T10:58:33.066Z,19.12
2023-11-12T11:01:02.710Z,19.13
2023-11-12T11:03:31.336Z,19.13
2023-11-12T11:06:00.928Z,19.13
2023-11-12T11:08:31.788Z,19.14
2023-11-12T11:11:05.339Z,19.13
2023-11-12T11:13:34.307Z,19.15
2023-11-12T11:16:01.996Z,19.16
2023-11-12T11:18:37.217Z,19.15
2023-11-12T11:21:03.622Z,19.15
2023-11-12T11:23:48.467Z,19.16
2023-11-12T11:26:40.592Z,19.18
2023-11-12T11:29:08.786Z,19.19
2023-11-12T11:31:36.597Z,19.20
2023-11-12T11:34:04.312Z,19.20
2023-11-12T11:36:34.881Z,19.19
2023-11-12T11:39:07.855Z,19.20
2023-11-12T11:41:43.299Z,19.21
2023-11-12T11:44:46.894Z,19.21
2023-11-12T11:47:18.997Z,19.21
2023-11-12T11:50:11.269Z,19.22
2023-11-12T11:52:40.216Z,19.22
2023-11-12T11:55:28.271Z,19.22
2023-11-12T11:58:01.157Z,19.23
2023-11-12T12:00:27.654Z,19.23
2023-11-12T12:02:55.019Z,19.23
2023-11-12T12:05:34.094Z,19.22
2023-11-12T12:08:05.125Z,19.24
2023-11-12T12:10:33.442Z,19.24
2023-11-12T12:13:00.010Z,19.25
2023-11-12T12:15:27.429Z,19.24
2023-11-12T12:17:53.997Z,19.26
2023-11-12T12:20:20.493Z,19.26
2023-11-12T12:22:47.936Z,19.26
2023-11-12T12:25:15.092Z,19.27
2023-11-12T12:27:52.905Z,19.25
2023-11-12T12:30:19.432Z,19.26
2023-11-12T12:32:45.846Z,19.24
2023-11-12T12:35:21.948Z,19.23
2023-11-12T12:37:48.314Z,19.22
2023-11-12T12:40:26.675Z,19.19
2023-11-12T12:42:56.029Z,19.15
2023-11-12T12:45:22.613Z,19.12
2023-11-12T12:47:49.336Z,19.08
2023-11-12T12:50:34.460Z,19.06
2023-11-12T12:53:14.940Z,19.04
2023-11-12T12:55:45.510Z,19.01
2023-11-12T12:58:12.261Z,19.01
2023-11-12T13:00:46.718Z,18.99
2023-11-12T13:03:28.274Z,18.97
2023-11-12T13:05:57.677Z,18.95
2023-11-12T13:08:24.639Z,18.94
2023-11-12T13:10:51.501Z,18.93
2023-11-12T13:13:22.796Z,18.91
2023-11-12T13:15:49.439Z,18.89
2023-11-12T13:18:16.036Z,18.86
2023-11-12T13:20:42.528Z,18.86
2023-11-12T13:23:08.929Z,18.84
2023-11-12T13:25:35.463Z,18.84
2023-11-12T13:28:03.788Z,18.84
2023-11-12T13:30:30.310Z,18.83
2023-11-12T13:32:57.260Z,18.81
2023-11-12T13:35:25.219Z,18.79
2023-11-12T13:37:51.655Z,18.78
2023-11-12T13:40:18.332Z,18.77
2023-11-12T13:42:45.806Z,18.75
2023-11-12T13:45:14.765Z,18.73
2023-11-12T13:47:41.352Z,18.70
2023-11-12T13:50:12.443Z,18.69
2023-11-12T13:52:39.763Z,18.66
2023-11-12T13:55:11.592Z,18.65
2023-11-12T13:57:38.863Z,18.63
2023-11-12T14:00:12.702Z,18.62
2023-11-12T14:02:41.470Z,18.62
2023-11-12T14:05:09.153Z,18.60
2023-11-12T14:07:39.880Z,18.57
2023-11-12T14:10:09.555Z,18.57
2023-11-12T14:12:38.363Z,18.55
2023-11-12T14:15:06.522Z,18.53
2023-11-12T14:17:34.577Z,18.53
2023-11-12T14:20:01.073Z,18.51
2023-11-12T14:22:28.485Z,18.49
2023-11-12T14:24:58.117Z,18.48
2023-11-12T14:27:27.687Z,18.44
2023-11-12T14:29:55.056Z,18.44
2023-11-12T14:32:22.003Z,18.42
2023-11-12T14:34:48.487Z,18.42
2023-11-12T14:37:15.095Z,18.40
2023-11-12T14:39:41.553Z,18.36
2023-11-12T14:42:07.978Z,18.35
2023-11-12T14:44:34.432Z,18.36
2023-11-12T14:47:01.440Z,18.39
2023-11-12T14:49:28.934Z,18.41
2023-11-12T14:51:55.420Z,18.43
2023-11-12T14:54:21.845Z,18.44
2023-11-12T14:56:53.594Z,18.47
2023-11-12T14:59:20.935Z,18.50
2023-11-12T15:01:48.069Z,18.53
2023-11-12T15:04:16.438Z,18.56
2023-11-12T15:06:43.080Z,18.61
2023-11-12T15:09:11.714Z,18.65
2023-11-12T15:11:41.315Z,18.71
2023-11-12T15:14:07.988Z,18.77
2023-11-12T15:16:34.626Z,18.84
2023-11-12T15:19:01.167Z,18.94
2023-11-12T15:21:28.727Z,19.05
2023-11-12T15:23:55.358Z,19.16
2023-11-12T15:26:22.045Z,19.29
2023-11-12T15:28:51.228Z,19.38
2023-11-12T15:31:18.495Z,19.44
2023-11-12T15:33:46.078Z,19.47
2023-11-12T15:36:12.602Z,19.54
2023-11-12T15:38:39.492Z,19.56
2023-11-12T15:41:08.918Z,19.59
2023-11-12T15:43:35.379Z,19.64
2023-11-12T15:46:04.685Z,19.67
2023-11-12T15:48:32.136Z,19.68
2023-11-12T15:50:58.753Z,19.72
2023-11-12T15:53:30.430Z,19.74
2023-11-12T15:55:59.547Z,19.76
2023-11-12T15:58:26.785Z,19.78
2023-11-12T16:00:53.866Z,19.79
2023-11-12T16:03:20.583Z,19.79
2023-11-12T16:05:48.397Z,19.81
2023-11-12T16:08:15.361Z,19.82
2023-11-12T16:10:41.957Z,19.83
2023-11-12T16:13:09.286Z,19.83
2023-11-12T16:15:37.202Z,19.85
2023-11-12T16:18:04.194Z,19.85
2023-11-12T16:20:32.915Z,19.86
2023-11-12T16:23:00.060Z,19.86
2023-11-12T16:25:27.797Z,19.88
2023-11-12T16:27:55.572Z,19.90
2023-11-12T16:30:25.022Z,19.91
2023-11-12T16:32:51.770Z,19.93
2023-11-12T16:35:20.923Z,19.94
2023-11-12T16:37:49.504Z,19.95
2023-11-12T16:40:18.198Z,19.96
2023-11-12T16:42:47.313Z,19.97
2023-11-12T16:45:14.063Z,19.98
2023-11-12T16:47:41.884Z,20.03
2023-11-12T16:50:09.966Z,20.08
2023-11-12T16:52:37.968Z,20.13
2023-11-12T16:55:06.201Z,20.17
2023-11-12T16:57:34.485Z,20.21
2023-11-12T17:00:01.041Z,20.25
2023-11-12T17:02:29.819Z,20.31
2023-11-12T17:04:56.853Z,20.35
2023-11-12T17:07:23.454Z,20.42
2023-11-12T17:09:50.009Z,20.46
2023-11-12T17:12:16.961Z,20.50
2023-11-12T17:14:43.716Z,20.54
2023-11-12T17:17:10.356Z,20.55
2023-11-12T17:19:36.847Z,20.58
2023-11-12T17:22:03.371Z,20.60
2023-11-12T17:24:30.030Z,20.62
2023-11-12T17:26:56.621Z,20.63
2023-11-12T17:29:23.175Z,20.64
2023-11-12T17:31:50.629Z,20.65
2023-11-12T17:34:17.952Z,20.65
2023-11-12T17:36:44.539Z,20.66
2023-11-12T17:39:11.074Z,20.67
2023-11-12T17:41:38.010Z,20.66
2023-11-12T17:44:05.387Z,20.67
2023-11-12T17:46:32.591Z,20.67
2023-11-12T17:49:01.994Z,20.68
2023-11-12T17:51:28.816Z,20.70
2023-11-12T17:55:49.648Z,20.71
2023-11-12T17:58:16.185Z,20.72
2023-11-12T18:00:42.708Z,20.72
2023-11-12T18:03:09.325Z,20.71
2023-11-12T18:05:35.976Z,20.70
2023-11-12T18:08:02.539Z,20.69
2023-11-12T18:10:28.959Z,20.70
2023-11-12T18:12:59.344Z,20.70
2023-11-12T18:15:26.648Z,20.71
2023-11-12T18:17:53.169Z,20.72
2023-11-12T18:20:20.400Z,20.73
2023-11-12T18:22:46.822Z,20.73
2023-11-12T18:25:13.477Z,20.74
2023-11-12T18:27:42.172Z,20.76
2023-11-12T18:30:09.199Z,20.76
2023-11-12T18:32:38.956Z,20.78
2023-11-12T18:35:07.186Z,20.78
2023-11-12T18:37:34.151Z,20.78
2023-11-12T18:40:01.163Z,20.80
2023-11-12T18:42:28.133Z,20.81
2023-11-12T18:44:54.524Z,20.81
2023-11-12T18:47:20.957Z,20.82
2023-11-12T18:49:49.976Z,20.83
2023-11-12T18:52:16.432Z,20.85
2023-11-12T18:54:43.971Z,20.85
2023-11-12T18:57:10.627Z,20.87
2023-11-12T18:59:37.091Z,20.89
2023-11-12T19:02:03.557Z,20.89
2023-11-12T19:04:31.094Z,20.89
2023-11-12T19:06:57.612Z,20.90
2023-11-12T19:09:24.384Z,20.92
2023-11-12T19:11:50.891Z,20.91
2023-11-12T19:14:18.387Z,20.89
2023-11-12T19:16:46.171Z,20.88
2023-11-12T19:19:13.162Z,20.89
2023-11-12T19:21:41.071Z,20.88
2023-11-12T19:24:11.384Z,20.87
2023-11-12T19:26:38.361Z,20.89
2023-11-12T19:29:04.800Z,20.90
2023-11-12T19:31:33.847Z,20.94
2023-11-12T19:34:00.992Z,20.94
2023-11-12T19:36:27.463Z,20.92
2023-11-12T19:38:54.170Z,20.91
2023-11-12T19:41:20.868Z,20.90
2023-11-12T19:43:48.530Z,20.90
2023-11-12T19:46:15.050Z,20.89
2023-11-12T19:48:41.845Z,20.89
2023-11-12T19:51:08.288Z,20.89
2023-11-12T19:53:34.771Z,20.89
2023-11-12T19:56:01.264Z,20.88
2023-11-12T19:58:27.763Z,20.88
2023-11-12T20:00:55.774Z,20.90
2023-11-12T20:03:22.826Z,20.90
2023-11-12T20:05:49.445Z,20.90
2023-11-12T20:08:15.881Z,20.90
2023-11-12T20:10:43.554Z,20.91
2023-11-12T20:13:10.111Z,20.90
2023-11-12T20:15:37.640Z,20.92
2023-11-12T20:18:09.488Z,20.92
2023-11-12T20:20:39.491Z,20.92
2023-11-12T20:23:08.721Z,20.93
2023-11-12T20:25:36.583Z,20.91
2023-11-12T20:28:12.333Z,20.92
2023-11-12T20:30:40.955Z,20.91
2023-11-12T20:33:07.534Z,20.90
2023-11-12T20:35:34.042Z,20.91
2023-11-12T20:38:00.821Z,20.90
2023-11-12T20:40:31.177Z,20.90
2023-11-12T20:42:57.656Z,20.90
2023-11-12T20:45:26.250Z,20.89
2023-11-12T20:47:53.000Z,20.89
2023-11-12T20:50:20.144Z,20.89
2023-11-12T20:52:47.209Z,20.88
2023-11-12T20:55:17.222Z,20.88
2023-11-12T20:57:47.322Z,20.88
2023-11-12T21:00:17.652Z,20.88
2023-11-12T21:02:44.200Z,20.88
2023-11-12T21:05:10.752Z,20.87
2023-11-12T21:07:37.237Z,20.87
2023-11-12T21:10:03.807Z,20.87
2023-11-12T21:12:30.276Z,20.87
2023-11-12T21:14:56.654Z,20.85
2023-11-12T21:17:23.094Z,20.84
2023-11-12T21:19:50.548Z,20.86
2023-11-12T21:22:17.086Z,20.85
2023-11-12T21:24:44.187Z,20.86
2023-11-12T21:27:13.360Z,20.87
2023-11-12T21:29:40.710Z,20.88
2023-11-12T21:32:09.177Z,20.88
2023-11-12T21:34:37.100Z,20.88
2023-11-12T21:37:03.911Z,20.89
2023-11-12T21:39:30.367Z,20.91
2023-11-12T21:41:56.768Z,20.89
2023-11-12T21:44:24.610Z,20.87
2023-11-12T21:46:52.826Z,20.85
2023-11-12T21:49:19.293Z,20.83
2023-11-12T21:51:46.111Z,20.82
2023-11-12T21:54:12.620Z,20.80
2023-11-12T21:56:39.056Z,20.78
2023-11-12T21:59:06.983Z,20.75
2023-11-12T22:01:33.449Z,20.72
2023-11-12T22:03:59.860Z,20.68
2023-11-12T22:06:26.385Z,20.62
2023-11-12T22:08:53.110Z,20.59
2023-11-12T22:11:19.528Z,20.56
2023-11-12T22:13:46.177Z,20.51
2023-11-12T22:16:13.401Z,20.44
2023-11-12T22:18:40.161Z,20.39
2023-11-12T22:21:07.861Z,20.34
2023-11-12T22:23:34.296Z,20.28
2023-11-12T22:26:00.861Z,20.23
2023-11-12T22:28:27.317Z,20.19
2023-11-12T22:30:53.742Z,20.15
2023-11-12T22:33:20.153Z,20.10
2023-11-12T22:35:46.525Z,20.07
2023-11-12T22:38:12.936Z,20.03
2023-11-12T22:40:39.660Z,20.00
2023-11-12T22:43:07.276Z,19.96
2023-11-12T22:45:33.888Z,19.93
2023-11-12T22:48:00.402Z,19.90
2023-11-12T22:50:28.557Z,19.85
2023-11-12T22:52:55.105Z,19.81
2023-11-12T22:55:21.960Z,19.79
2023-11-12T22:57:48.521Z,19.75
2023-11-12T23:02:57.336Z,19.68
2023-11-12T23:05:23.864Z,19.65
2023-11-12T23:07:50.235Z,19.62
2023-11-12T23:10:16.743Z,19.60
2023-11-12T23:12:43.256Z,19.58
2023-11-12T23:15:09.806Z,19.54
2023-11-12T23:17:36.833Z,19.50
2023-11-12T23:20:04.470Z,19.49
2023-11-12T23:22:30.929Z,19.47
2023-11-12T23:24:57.443Z,19.45
2023-11-12T23:27:24.015Z,19.43
2023-11-12T23:29:50.530Z,19.40
2023-11-12T23:32:17.494Z,19.37
2023-11-12T23:34:44.959Z,19.34
2023-11-12T23:37:11.590Z,19.33
2023-11-12T23:39:38.427Z,19.30
2023-11-12T23:42:05.333Z,19.29
2023-11-12T23:44:31.757Z,19.27
2023-11-12T23:46:58.188Z,19.24
2023-11-12T23:49:24.627Z,19.22
2023-11-12T23:51:51.099Z,19.19
2023-11-12T23:54:17.552Z,19.17
2023-11-12T23:56:44.098Z,19.14
2023-11-12T23:59:10.755Z,19.13
